sensor_id;sensor_type;location;lat;lon;timestamp;P1;durP1;ratioP1;P2;durP2;ratioP2
49456;SDS011;35352;51.480;-0.862;2023-02-28T00:01:13;5;;;5;;
49456;SDS011;35352;51.480;-0.862;2023-02-28T00:03:41;12;;;8;;
49456;SDS011;35352;51.480;-0.862;2023-02-28T00:06:09;12;;;11;;
49456;SDS011;35352;51.480;-0.862;2023-02-28T00:08:37;7;;;7;;
49456;SDS011;35352;51.480;-0.862;2023-02-28T00:11:13;7;;;7;;
49456;SDS011;35352;51.480;-0.862;2023-02-28T00:13:42;9;;;9;;
49456;SDS011;35352;51.480;-0.862;2023-02-28T00:16:12;6;;;6;;
49456;SDS011;35352;51.480;-0.862;2023-02-28T00:18:41;6;;;5;;
49456;SDS011;35352;51.480;-0.862;2023-02-28T00:21:13;4;;;4;;
49456;SDS011;35352;51.480;-0.862;2023-02-28T00:23:41;6;;;6;;
49456;SDS011;35352;51.480;-0.862;2023-02-28T00:26:08;7;;;7;;
49456;SDS011;35352;51.480;-0.862;2023-02-28T00:28:35;6;;;6;;
49456;SDS011;35352;51.480;-0.862;2023-02-28T00:31:12;7;;;7;;
49456;SDS011;35352;51.480;-0.862;2023-02-28T00:33:40;7;;;7;;
49456;SDS011;35352;51.480;-0.862;2023-02-28T00:36:07;6;;;6;;
49456;SDS011;35352;51.480;-0.862;2023-02-28T00:38:37;9;;;9;;
49456;SDS011;35352;51.480;-0.862;2023-02-28T00:41:12;5;;;5;;
49456;SDS011;35352;51.480;-0.862;2023-02-28T00:43:40;9;;;8;;
49456;SDS011;35352;51.480;-0.862;2023-02-28T00:46:07;8;;;7;;
49456;SDS011;35352;51.480;-0.862;2023-02-28T00:48:34;10;;;9;;
49456;SDS011;35352;51.480;-0.862;2023-02-28T00:51:13;4;;;4;;
49456;SDS011;35352;51.480;-0.862;2023-02-28T00:53:40;7;;;7;;
49456;SDS011;35352;51.480;-0.862;2023-02-28T00:56:07;5;;;5;;
49456;SDS011;35352;51.480;-0.862;2023-02-28T00:58:34;8;;;8;;
49456;SDS011;35352;51.480;-0.862;2023-02-28T01:01:18;7;;;7;;
49456;SDS011;35352;51.480;-0.862;2023-02-28T01:03:45;6;;;6;;
49456;SDS011;35352;51.480;-0.862;2023-02-28T01:06:12;7;;;7;;
49456;SDS011;35352;51.480;-0.862;2023-02-28T01:08:39;10;;;7;;
49456;SDS011;35352;51.480;-0.862;2023-02-28T01:11:13;5;;;4;;
49456;SDS011;35352;51.480;-0.862;2023-02-28T01:13:42;9;;;9;;
49456;SDS011;35352;51.480;-0.862;2023-02-28T01:16:11;10;;;7;;
49456;SDS011;35352;51.480;-0.862;2023-02-28T01:18:39;7;;;7;;
49456;SDS011;35352;51.480;-0.862;2023-02-28T01:21:13;5;;;5;;
49456;SDS011;35352;51.480;-0.862;2023-02-28T01:23:42;7;;;5;;
49456;SDS011;35352;51.480;-0.862;2023-02-28T01:26:11;10;;;6;;
49456;SDS011;35352;51.480;-0.862;2023-02-28T01:28:41;9;;;7;;
49456;SDS011;35352;51.480;-0.862;2023-02-28T01:31:12;4;;;4;;
49456;SDS011;35352;51.480;-0.862;2023-02-28T01:33:40;8;;;7;;
49456;SDS011;35352;51.480;-0.862;2023-02-28T01:36:09;7;;;5;;
49456;SDS011;35352;51.480;-0.862;2023-02-28T01:38:39;7;;;7;;
49456;SDS011;35352;51.480;-0.862;2023-02-28T01:41:15;4;;;4;;
49456;SDS011;35352;51.480;-0.862;2023-02-28T01:43:53;8;;;6;;
49456;SDS011;35352;51.480;-0.862;2023-02-28T01:46:23;8;;;7;;
49456;SDS011;35352;51.480;-0.862;2023-02-28T01:48:53;5;;;4;;
49456;SDS011;35352;51.480;-0.862;2023-02-28T01:51:27;6;;;5;;
49456;SDS011;35352;51.480;-0.862;2023-02-28T01:54:03;7;;;6;;
49456;SDS011;35352;51.480;-0.862;2023-02-28T01:56:35;8;;;5;;
49456;SDS011;35352;51.480;-0.862;2023-02-28T01:59:03;5;;;4;;
49456;SDS011;35352;51.480;-0.862;2023-02-28T02:01:31;5;;;5;;
49456;SDS011;35352;51.480;-0.862;2023-02-28T02:03:59;6;;;5;;
49456;SDS011;35352;51.480;-0.862;2023-02-28T02:06:30;5;;;4;;
49456;SDS011;35352;51.480;-0.862;2023-02-28T02:09:02;9;;;7;;
49456;SDS011;35352;51.480;-0.862;2023-02-28T02:11:30;6;;;6;;
49456;SDS011;35352;51.480;-0.862;2023-02-28T02:14:02;7;;;5;;
49456;SDS011;35352;51.480;-0.862;2023-02-28T02:17:04;8;;;6;;
49456;SDS011;35352;51.480;-0.862;2023-02-28T02:22:00;7;;;7;;
49456;SDS011;35352;51.480;-0.862;2023-02-28T02:22:27;6;;;6;;
49456;SDS011;35352;51.480;-0.862;2023-02-28T02:25:27;9;;;8;;
49456;SDS011;35352;51.480;-0.862;2023-02-28T02:28:04;5;;;3;;
49456;SDS011;35352;51.480;-0.862;2023-02-28T02:31:26;1;;;1;;
49456;SDS011;35352;51.480;-0.862;2023-02-28T02:35:13;5;;;5;;
49456;SDS011;35352;51.480;-0.862;2023-02-28T02:37:50;8;;;6;;
49456;SDS011;35352;51.480;-0.862;2023-02-28T02:41:13;2;;;2;;
49456;SDS011;35352;51.480;-0.862;2023-02-28T02:43:48;7;;;6;;
49456;SDS011;35352;51.480;-0.862;2023-02-28T02:46:19;11;;;9;;
49456;SDS011;35352;51.480;-0.862;2023-02-28T02:48:54;6;;;5;;
49456;SDS011;35352;51.480;-0.862;2023-02-28T02:51:27;9;;;6;;
49456;SDS011;35352;51.480;-0.862;2023-02-28T02:54:00;5;;;5;;
49456;SDS011;35352;51.480;-0.862;2023-02-28T02:56:32;5;;;5;;
49456;SDS011;35352;51.480;-0.862;2023-02-28T02:59:03;7;;;6;;
49456;SDS011;35352;51.480;-0.862;2023-02-28T03:01:36;7;;;6;;
49456;SDS011;35352;51.480;-0.862;2023-02-28T03:04:06;9;;;8;;
49456;SDS011;35352;51.480;-0.862;2023-02-28T03:06:37;11;;;10;;
49456;SDS011;35352;51.480;-0.862;2023-02-28T03:09:05;7;;;7;;
49456;SDS011;35352;51.480;-0.862;2023-02-28T03:11:32;7;;;7;;
49456;SDS011;35352;51.480;-0.862;2023-02-28T03:14:10;7;;;7;;
49456;SDS011;35352;51.480;-0.862;2023-02-28T03:17:38;8;;;8;;
49456;SDS011;35352;51.480;-0.862;2023-02-28T03:21:14;5;;;5;;
49456;SDS011;35352;51.480;-0.862;2023-02-28T03:23:51;8;;;8;;
49456;SDS011;35352;51.480;-0.862;2023-02-28T03:26:26;7;;;6;;
49456;SDS011;35352;51.480;-0.862;2023-02-28T03:28:57;7;;;6;;
49456;SDS011;35352;51.480;-0.862;2023-02-28T03:31:30;7;;;7;;
49456;SDS011;35352;51.480;-0.862;2023-02-28T03:34:03;13;;;13;;
49456;SDS011;35352;51.480;-0.862;2023-02-28T03:36:37;9;;;9;;
49456;SDS011;35352;51.480;-0.862;2023-02-28T03:39:08;8;;;8;;
49456;SDS011;35352;51.480;-0.862;2023-02-28T03:41:42;10;;;10;;
49456;SDS011;35352;51.480;-0.862;2023-02-28T03:44:13;12;;;12;;
49456;SDS011;35352;51.480;-0.862;2023-02-28T03:46:48;15;;;11;;
49456;SDS011;35352;51.480;-0.862;2023-02-28T03:49:23;11;;;10;;
49456;SDS011;35352;51.480;-0.862;2023-02-28T03:51:55;11;;;9;;
49456;SDS011;35352;51.480;-0.862;2023-02-28T03:54:27;11;;;11;;
49456;SDS011;35352;51.480;-0.862;2023-02-28T03:57:00;14;;;12;;
49456;SDS011;35352;51.480;-0.862;2023-02-28T03:59:33;9;;;9;;
49456;SDS011;35352;51.480;-0.862;2023-02-28T04:02:07;9;;;9;;
49456;SDS011;35352;51.480;-0.862;2023-02-28T04:04:35;14;;;12;;
49456;SDS011;35352;51.480;-0.862;2023-02-28T04:07:04;14;;;11;;
49456;SDS011;35352;51.480;-0.862;2023-02-28T04:09:34;12;;;11;;
49456;SDS011;35352;51.480;-0.862;2023-02-28T04:12:01;10;;;10;;
49456;SDS011;35352;51.480;-0.862;2023-02-28T04:14:28;12;;;12;;
49456;SDS011;35352;51.480;-0.862;2023-02-28T04:16:55;8;;;8;;
49456;SDS011;35352;51.480;-0.862;2023-02-28T04:19:22;14;;;13;;
49456;SDS011;35352;51.480;-0.862;2023-02-28T04:21:51;11;;;11;;
49456;SDS011;35352;51.480;-0.862;2023-02-28T04:24:20;15;;;15;;
49456;SDS011;35352;51.480;-0.862;2023-02-28T04:26:49;9;;;9;;
49456;SDS011;35352;51.480;-0.862;2023-02-28T04:29:18;12;;;11;;
49456;SDS011;35352;51.480;-0.862;2023-02-28T04:31:47;12;;;10;;
49456;SDS011;35352;51.480;-0.862;2023-02-28T04:34:16;10;;;10;;
49456;SDS011;35352;51.480;-0.862;2023-02-28T04:36:45;12;;;10;;
49456;SDS011;35352;51.480;-0.862;2023-02-28T04:39:12;12;;;12;;
49456;SDS011;35352;51.480;-0.862;2023-02-28T04:41:40;12;;;10;;
49456;SDS011;35352;51.480;-0.862;2023-02-28T04:44:07;12;;;10;;
49456;SDS011;35352;51.480;-0.862;2023-02-28T04:46:34;9;;;8;;
49456;SDS011;35352;51.480;-0.862;2023-02-28T04:49:01;8;;;7;;
49456;SDS011;35352;51.480;-0.862;2023-02-28T04:51:28;11;;;10;;
49456;SDS011;35352;51.480;-0.862;2023-02-28T04:53:57;14;;;12;;
49456;SDS011;35352;51.480;-0.862;2023-02-28T04:56:25;11;;;11;;
49456;SDS011;35352;51.480;-0.862;2023-02-28T04:58:52;8;;;7;;
49456;SDS011;35352;51.480;-0.862;2023-02-28T05:01:20;11;;;10;;
49456;SDS011;35352;51.480;-0.862;2023-02-28T05:03:50;12;;;12;;
49456;SDS011;35352;51.480;-0.862;2023-02-28T05:06:19;13;;;11;;
49456;SDS011;35352;51.480;-0.862;2023-02-28T05:08:47;10;;;9;;
49456;SDS011;35352;51.480;-0.862;2023-02-28T05:11:15;9;;;9;;
49456;SDS011;35352;51.480;-0.862;2023-02-28T05:13:44;12;;;10;;
49456;SDS011;35352;51.480;-0.862;2023-02-28T05:16:12;16;;;11;;
49456;SDS011;35352;51.480;-0.862;2023-02-28T05:18:46;14;;;12;;
49456;SDS011;35352;51.480;-0.862;2023-02-28T05:21:20;8;;;8;;
49456;SDS011;35352;51.480;-0.862;2023-02-28T05:23:52;9;;;9;;
49456;SDS011;35352;51.480;-0.862;2023-02-28T05:26:21;12;;;9;;
49456;SDS011;35352;51.480;-0.862;2023-02-28T05:28:49;15;;;15;;
49456;SDS011;35352;51.480;-0.862;2023-02-28T05:31:15;9;;;9;;
49456;SDS011;35352;51.480;-0.862;2023-02-28T05:33:43;13;;;11;;
49456;SDS011;35352;51.480;-0.862;2023-02-28T05:36:10;12;;;11;;
49456;SDS011;35352;51.480;-0.862;2023-02-28T05:38:38;13;;;11;;
49456;SDS011;35352;51.480;-0.862;2023-02-28T05:41:12;9;;;9;;
49456;SDS011;35352;51.480;-0.862;2023-02-28T05:43:40;13;;;13;;
49456;SDS011;35352;51.480;-0.862;2023-02-28T05:46:08;13;;;13;;
49456;SDS011;35352;51.480;-0.862;2023-02-28T05:48:37;12;;;9;;
49456;SDS011;35352;51.480;-0.862;2023-02-28T05:51:13;9;;;9;;
49456;SDS011;35352;51.480;-0.862;2023-02-28T05:53:40;15;;;12;;
49456;SDS011;35352;51.480;-0.862;2023-02-28T05:56:08;12;;;11;;
49456;SDS011;35352;51.480;-0.862;2023-02-28T05:58:35;14;;;13;;
49456;SDS011;35352;51.480;-0.862;2023-02-28T06:01:23;10;;;10;;
49456;SDS011;35352;51.480;-0.862;2023-02-28T06:03:58;17;;;14;;
49456;SDS011;35352;51.480;-0.862;2023-02-28T06:06:25;16;;;13;;
49456;SDS011;35352;51.480;-0.862;2023-02-28T06:08:53;13;;;12;;
49456;SDS011;35352;51.480;-0.862;2023-02-28T06:11:20;13;;;12;;
49456;SDS011;35352;51.480;-0.862;2023-02-28T06:13:47;16;;;16;;
49456;SDS011;35352;51.480;-0.862;2023-02-28T06:16:14;17;;;16;;
49456;SDS011;35352;51.480;-0.862;2023-02-28T06:18:42;15;;;15;;
49456;SDS011;35352;51.480;-0.862;2023-02-28T06:21:12;11;;;11;;
49456;SDS011;35352;51.480;-0.862;2023-02-28T06:23:40;17;;;14;;
49456;SDS011;35352;51.480;-0.862;2023-02-28T06:26:07;15;;;14;;
49456;SDS011;35352;51.480;-0.862;2023-02-28T06:28:34;17;;;14;;
49456;SDS011;35352;51.480;-0.862;2023-02-28T06:31:14;9;;;9;;
49456;SDS011;35352;51.480;-0.862;2023-02-28T06:33:44;13;;;12;;
49456;SDS011;35352;51.480;-0.862;2023-02-28T06:36:13;15;;;13;;
49456;SDS011;35352;51.480;-0.862;2023-02-28T06:38:42;15;;;13;;
49456;SDS011;35352;51.480;-0.862;2023-02-28T06:41:13;11;;;11;;
49456;SDS011;35352;51.480;-0.862;2023-02-28T06:43:41;14;;;14;;
49456;SDS011;35352;51.480;-0.862;2023-02-28T06:46:10;18;;;14;;
49456;SDS011;35352;51.480;-0.862;2023-02-28T06:48:39;17;;;15;;
49456;SDS011;35352;51.480;-0.862;2023-02-28T06:51:14;14;;;14;;
49456;SDS011;35352;51.480;-0.862;2023-02-28T06:53:41;19;;;18;;
49456;SDS011;35352;51.480;-0.862;2023-02-28T06:56:09;14;;;14;;
49456;SDS011;35352;51.480;-0.862;2023-02-28T06:58:47;20;;;19;;
49456;SDS011;35352;51.480;-0.862;2023-02-28T07:01:14;22;;;20;;
49456;SDS011;35352;51.480;-0.862;2023-02-28T07:03:41;17;;;16;;
49456;SDS011;35352;51.480;-0.862;2023-02-28T07:06:08;19;;;16;;
49456;SDS011;35352;51.480;-0.862;2023-02-28T07:08:36;20;;;15;;
49456;SDS011;35352;51.480;-0.862;2023-02-28T07:11:13;11;;;11;;
49456;SDS011;35352;51.480;-0.862;2023-02-28T07:13:40;21;;;20;;
49456;SDS011;35352;51.480;-0.862;2023-02-28T07:16:09;20;;;19;;
49456;SDS011;35352;51.480;-0.862;2023-02-28T07:18:38;17;;;17;;
49456;SDS011;35352;51.480;-0.862;2023-02-28T07:21:13;14;;;14;;
49456;SDS011;35352;51.480;-0.862;2023-02-28T07:23:41;18;;;17;;
49456;SDS011;35352;51.480;-0.862;2023-02-28T07:26:10;19;;;17;;
49456;SDS011;35352;51.480;-0.862;2023-02-28T07:28:39;26;;;23;;
49456;SDS011;35352;51.480;-0.862;2023-02-28T07:31:13;18;;;18;;
49456;SDS011;35352;51.480;-0.862;2023-02-28T07:33:41;22;;;20;;
49456;SDS011;35352;51.480;-0.862;2023-02-28T07:36:09;20;;;19;;
49456;SDS011;35352;51.480;-0.862;2023-02-28T07:38:38;24;;;20;;
49456;SDS011;35352;51.480;-0.862;2023-02-28T07:41:12;12;;;10;;
49456;SDS011;35352;51.480;-0.862;2023-02-28T07:43:41;25;;;22;;
49456;SDS011;35352;51.480;-0.862;2023-02-28T07:46:09;17;;;16;;
49456;SDS011;35352;51.480;-0.862;2023-02-28T07:48:38;18;;;17;;
49456;SDS011;35352;51.480;-0.862;2023-02-28T07:51:13;16;;;16;;
49456;SDS011;35352;51.480;-0.862;2023-02-28T07:53:40;22;;;21;;
49456;SDS011;35352;51.480;-0.862;2023-02-28T07:56:08;17;;;16;;
49456;SDS011;35352;51.480;-0.862;2023-02-28T07:58:35;22;;;18;;
49456;SDS011;35352;51.480;-0.862;2023-02-28T08:01:12;11;;;11;;
49456;SDS011;35352;51.480;-0.862;2023-02-28T08:03:40;21;;;19;;
49456;SDS011;35352;51.480;-0.862;2023-02-28T08:06:09;20;;;18;;
49456;SDS011;35352;51.480;-0.862;2023-02-28T08:08:43;22;;;21;;
49456;SDS011;35352;51.480;-0.862;2023-02-28T08:11:12;15;;;15;;
49456;SDS011;35352;51.480;-0.862;2023-02-28T08:13:41;23;;;20;;
49456;SDS011;35352;51.480;-0.862;2023-02-28T08:16:09;24;;;21;;
49456;SDS011;35352;51.480;-0.862;2023-02-28T08:18:36;29;;;28;;
49456;SDS011;35352;51.480;-0.862;2023-02-28T08:21:12;14;;;14;;
49456;SDS011;35352;51.480;-0.862;2023-02-28T08:23:40;32;;;24;;
49456;SDS011;35352;51.480;-0.862;2023-02-28T08:26:07;17;;;15;;
49456;SDS011;35352;51.480;-0.862;2023-02-28T08:28:36;16;;;13;;
49456;SDS011;35352;51.480;-0.862;2023-02-28T08:31:13;10;;;10;;
49456;SDS011;35352;51.480;-0.862;2023-02-28T08:33:43;8;;;7;;
49456;SDS011;35352;51.480;-0.862;2023-02-28T08:36:11;10;;;9;;
49456;SDS011;35352;51.480;-0.862;2023-02-28T08:38:39;9;;;9;;
49456;SDS011;35352;51.480;-0.862;2023-02-28T08:41:12;6;;;5;;
49456;SDS011;35352;51.480;-0.862;2023-02-28T08:43:40;12;;;12;;
49456;SDS011;35352;51.480;-0.862;2023-02-28T08:46:08;9;;;9;;
49456;SDS011;35352;51.480;-0.862;2023-02-28T08:48:38;12;;;10;;
49456;SDS011;35352;51.480;-0.862;2023-02-28T08:51:13;7;;;7;;
49456;SDS011;35352;51.480;-0.862;2023-02-28T08:53:45;12;;;12;;
49456;SDS011;35352;51.480;-0.862;2023-02-28T08:56:13;8;;;8;;
49456;SDS011;35352;51.480;-0.862;2023-02-28T08:58:43;12;;;12;;
49456;SDS011;35352;51.480;-0.862;2023-02-28T09:01:13;8;;;8;;
49456;SDS011;35352;51.480;-0.862;2023-02-28T09:03:42;12;;;10;;
49456;SDS011;35352;51.480;-0.862;2023-02-28T09:06:10;13;;;12;;
49456;SDS011;35352;51.480;-0.862;2023-02-28T09:08:39;13;;;12;;
49456;SDS011;35352;51.480;-0.862;2023-02-28T09:11:12;10;;;10;;
49456;SDS011;35352;51.480;-0.862;2023-02-28T09:13:40;15;;;13;;
49456;SDS011;35352;51.480;-0.862;2023-02-28T09:16:10;9;;;9;;
49456;SDS011;35352;51.480;-0.862;2023-02-28T09:18:40;9;;;9;;
49456;SDS011;35352;51.480;-0.862;2023-02-28T09:21:14;13;;;13;;
49456;SDS011;35352;51.480;-0.862;2023-02-28T09:23:44;15;;;9;;
49456;SDS011;35352;51.480;-0.862;2023-02-28T09:26:13;15;;;13;;
49456;SDS011;35352;51.480;-0.862;2023-02-28T09:28:42;12;;;9;;
49456;SDS011;35352;51.480;-0.862;2023-02-28T09:31:13;9;;;9;;
49456;SDS011;35352;51.480;-0.862;2023-02-28T09:33:42;12;;;12;;
49456;SDS011;35352;51.480;-0.862;2023-02-28T09:36:09;14;;;12;;
49456;SDS011;35352;51.480;-0.862;2023-02-28T09:38:36;11;;;11;;
49456;SDS011;35352;51.480;-0.862;2023-02-28T09:41:13;9;;;8;;
49456;SDS011;35352;51.480;-0.862;2023-02-28T09:43:44;8;;;8;;
49456;SDS011;35352;51.480;-0.862;2023-02-28T09:46:17;6;;;6;;
49456;SDS011;35352;51.480;-0.862;2023-02-28T09:48:53;12;;;8;;
49456;SDS011;35352;51.480;-0.862;2023-02-28T09:51:28;8;;;8;;
49456;SDS011;35352;51.480;-0.862;2023-02-28T09:54:04;6;;;6;;
49456;SDS011;35352;51.480;-0.862;2023-02-28T09:56:33;6;;;5;;
49456;SDS011;35352;51.480;-0.862;2023-02-28T09:59:07;3;;;3;;
49456;SDS011;35352;51.480;-0.862;2023-02-28T10:01:42;5;;;5;;
49456;SDS011;35352;51.480;-0.862;2023-02-28T10:04:16;5;;;4;;
49456;SDS011;35352;51.480;-0.862;2023-02-28T10:07:04;4;;;4;;
49456;SDS011;35352;51.480;-0.862;2023-02-28T10:09:38;5;;;4;;
49456;SDS011;35352;51.480;-0.862;2023-02-28T10:12:06;8;;;7;;
49456;SDS011;35352;51.480;-0.862;2023-02-28T10:14:36;8;;;8;;
49456;SDS011;35352;51.480;-0.862;2023-02-28T10:17:10;5;;;5;;
49456;SDS011;35352;51.480;-0.862;2023-02-28T10:19:40;9;;;9;;
49456;SDS011;35352;51.480;-0.862;2023-02-28T10:22:19;5;;;4;;
49456;SDS011;35352;51.480;-0.862;2023-02-28T10:24:51;8;;;7;;
49456;SDS011;35352;51.480;-0.862;2023-02-28T10:27:21;4;;;4;;
49456;SDS011;35352;51.480;-0.862;2023-02-28T10:29:50;8;;;8;;
49456;SDS011;35352;51.480;-0.862;2023-02-28T10:32:19;4;;;4;;
49456;SDS011;35352;51.480;-0.862;2023-02-28T10:34:50;4;;;4;;
49456;SDS011;35352;51.480;-0.862;2023-02-28T10:37:21;4;;;4;;
49456;SDS011;35352;51.480;-0.862;2023-02-28T10:39:49;5;;;4;;
49456;SDS011;35352;51.480;-0.862;2023-02-28T10:42:19;5;;;3;;
49456;SDS011;35352;51.480;-0.862;2023-02-28T10:44:48;5;;;5;;
49456;SDS011;35352;51.480;-0.862;2023-02-28T10:47:16;10;;;10;;
49456;SDS011;35352;51.480;-0.862;2023-02-28T10:49:46;11;;;8;;
49456;SDS011;35352;51.480;-0.862;2023-02-28T10:52:15;13;;;10;;
49456;SDS011;35352;51.480;-0.862;2023-02-28T10:55:20;5;;;5;;
49456;SDS011;35352;51.480;-0.862;2023-02-28T10:57:49;6;;;6;;
49456;SDS011;35352;51.480;-0.862;2023-02-28T11:01:13;2;;;2;;
49456;SDS011;35352;51.480;-0.862;2023-02-28T11:03:43;13;;;10;;
49456;SDS011;35352;51.480;-0.862;2023-02-28T11:06:14;7;;;4;;
49456;SDS011;35352;51.480;-0.862;2023-02-28T11:08:45;5;;;5;;
49456;SDS011;35352;51.480;-0.862;2023-02-28T11:11:13;3;;;3;;
49456;SDS011;35352;51.480;-0.862;2023-02-28T11:13:41;12;;;10;;
49456;SDS011;35352;51.480;-0.862;2023-02-28T11:16:09;14;;;14;;
49456;SDS011;35352;51.480;-0.862;2023-02-28T11:18:40;13;;;11;;
49456;SDS011;35352;51.480;-0.862;2023-02-28T11:21:16;13;;;13;;
49456;SDS011;35352;51.480;-0.862;2023-02-28T11:23:47;18;;;15;;
49456;SDS011;35352;51.480;-0.862;2023-02-28T11:26:35;13;;;8;;
49456;SDS011;35352;51.480;-0.862;2023-02-28T11:29:10;5;;;5;;
49456;SDS011;35352;51.480;-0.862;2023-02-28T11:31:42;4;;;4;;
49456;SDS011;35352;51.480;-0.862;2023-02-28T11:34:26;4;;;4;;
49456;SDS011;35352;51.480;-0.862;2023-02-28T11:36:55;3;;;3;;
49456;SDS011;35352;51.480;-0.862;2023-02-28T11:39:24;4;;;4;;
49456;SDS011;35352;51.480;-0.862;2023-02-28T11:41:57;3;;;3;;
49456;SDS011;35352;51.480;-0.862;2023-02-28T11:44:42;8;;;6;;
49456;SDS011;35352;51.480;-0.862;2023-02-28T11:47:19;5;;;5;;
49456;SDS011;35352;51.480;-0.862;2023-02-28T11:49:56;5;;;2;;
49456;SDS011;35352;51.480;-0.862;2023-02-28T11:52:43;5;;;3;;
49456;SDS011;35352;51.480;-0.862;2023-02-28T11:55:17;4;;;4;;
49456;SDS011;35352;51.480;-0.862;2023-02-28T11:57:55;7;;;5;;
49456;SDS011;35352;51.480;-0.862;2023-02-28T12:01:17;10;;;10;;
49456;SDS011;35352;51.480;-0.862;2023-02-28T12:03:56;7;;;5;;
49456;SDS011;35352;51.480;-0.862;2023-02-28T12:06:38;7;;;5;;
49456;SDS011;35352;51.480;-0.862;2023-02-28T12:09:13;3;;;3;;
49456;SDS011;35352;51.480;-0.862;2023-02-28T12:11:58;4;;;4;;
49456;SDS011;35352;51.480;-0.862;2023-02-28T12:14:48;5;;;2;;
49456;SDS011;35352;51.480;-0.862;2023-02-28T12:17:08;5;;;2;;
49456;SDS011;35352;51.480;-0.862;2023-02-28T12:17:26;6;;;3;;
49456;SDS011;35352;51.480;-0.862;2023-02-28T12:21:15;2;;;2;;
49456;SDS011;35352;51.480;-0.862;2023-02-28T12:23:54;6;;;6;;
49456;SDS011;35352;51.480;-0.862;2023-02-28T12:26:34;5;;;5;;
49456;SDS011;35352;51.480;-0.862;2023-02-28T12:29:09;5;;;4;;
49456;SDS011;35352;51.480;-0.862;2023-02-28T12:31:44;4;;;3;;
49456;SDS011;35352;51.480;-0.862;2023-02-28T12:34:19;1;;;1;;
49456;SDS011;35352;51.480;-0.862;2023-02-28T12:36:49;4;;;4;;
49456;SDS011;35352;51.480;-0.862;2023-02-28T12:39:20;4;;;4;;
49456;SDS011;35352;51.480;-0.862;2023-02-28T12:41:54;4;;;4;;
49456;SDS011;35352;51.480;-0.862;2023-02-28T12:44:28;1;;;1;;
49456;SDS011;35352;51.480;-0.862;2023-02-28T12:47:02;3;;;3;;
49456;SDS011;35352;51.480;-0.862;2023-02-28T12:49:33;2;;;2;;
49456;SDS011;35352;51.480;-0.862;2023-02-28T12:52:07;3;;;3;;
49456;SDS011;35352;51.480;-0.862;2023-02-28T12:54:39;3;;;3;;
49456;SDS011;35352;51.480;-0.862;2023-02-28T12:57:14;2;;;2;;
49456;SDS011;35352;51.480;-0.862;2023-02-28T12:59:49;3;;;3;;
49456;SDS011;35352;51.480;-0.862;2023-02-28T13:02:27;4;;;3;;
49456;SDS011;35352;51.480;-0.862;2023-02-28T13:05:16;3;;;3;;
49456;SDS011;35352;51.480;-0.862;2023-02-28T13:08:08;6;;;6;;
49456;SDS011;35352;51.480;-0.862;2023-02-28T13:11:24;2;;;2;;
49456;SDS011;35352;51.480;-0.862;2023-02-28T13:13:58;7;;;6;;
49456;SDS011;35352;51.480;-0.862;2023-02-28T13:16:26;7;;;6;;
49456;SDS011;35352;51.480;-0.862;2023-02-28T13:19:07;4;;;4;;
49456;SDS011;35352;51.480;-0.862;2023-02-28T13:21:41;4;;;4;;
49456;SDS011;35352;51.480;-0.862;2023-02-28T13:24:11;4;;;4;;
49456;SDS011;35352;51.480;-0.862;2023-02-28T13:27:37;4;;;4;;
49456;SDS011;35352;51.480;-0.862;2023-02-28T13:31:13;2;;;2;;
49456;SDS011;35352;51.480;-0.862;2023-02-28T13:34:04;1;;;1;;
49456;SDS011;35352;51.480;-0.862;2023-02-28T13:36:39;3;;;3;;
49456;SDS011;35352;51.480;-0.862;2023-02-28T13:39:46;2;;;2;;
49456;SDS011;35352;51.480;-0.862;2023-02-28T13:42:24;4;;;4;;
49456;SDS011;35352;51.480;-0.862;2023-02-28T13:45:21;2;;;1;;
49456;SDS011;35352;51.480;-0.862;2023-02-28T13:47:52;3;;;3;;
49456;SDS011;35352;51.480;-0.862;2023-02-28T13:51:37;1;;;1;;
49456;SDS011;35352;51.480;-0.862;2023-02-28T13:54:07;3;;;3;;
49456;SDS011;35352;51.480;-0.862;2023-02-28T13:56:52;4;;;3;;
49456;SDS011;35352;51.480;-0.862;2023-02-28T13:59:32;6;;;5;;
49456;SDS011;35352;51.480;-0.862;2023-02-28T14:02:16;10;;;7;;
49456;SDS011;35352;51.480;-0.862;2023-02-28T14:05:02;5;;;5;;
49456;SDS011;35352;51.480;-0.862;2023-02-28T14:07:40;10;;;10;;
49456;SDS011;35352;51.480;-0.862;2023-02-28T14:11:25;3;;;3;;
49456;SDS011;35352;51.480;-0.862;2023-02-28T14:13:55;6;;;5;;
49456;SDS011;35352;51.480;-0.862;2023-02-28T14:16:23;6;;;6;;
49456;SDS011;35352;51.480;-0.862;2023-02-28T14:18:55;5;;;4;;
49456;SDS011;35352;51.480;-0.862;2023-02-28T14:21:26;4;;;4;;
49456;SDS011;35352;51.480;-0.862;2023-02-28T14:24:03;5;;;4;;
49456;SDS011;35352;51.480;-0.862;2023-02-28T14:27:22;5;;;5;;
49456;SDS011;35352;51.480;-0.862;2023-02-28T14:30:04;3;;;3;;
49456;SDS011;35352;51.480;-0.862;2023-02-28T14:31:24;3;;;3;;
49456;SDS011;35352;51.480;-0.862;2023-02-28T14:31:32;3;;;3;;
49456;SDS011;35352;51.480;-0.862;2023-02-28T14:34:12;5;;;5;;
49456;SDS011;35352;51.480;-0.862;2023-02-28T14:36:53;9;;;7;;
49456;SDS011;35352;51.480;-0.862;2023-02-28T14:39:26;4;;;4;;
49456;SDS011;35352;51.480;-0.862;2023-02-28T14:41:56;6;;;6;;
49456;SDS011;35352;51.480;-0.862;2023-02-28T14:44:24;4;;;4;;
49456;SDS011;35352;51.480;-0.862;2023-02-28T14:46:54;9;;;6;;
49456;SDS011;35352;51.480;-0.862;2023-02-28T14:49:24;3;;;3;;
49456;SDS011;35352;51.480;-0.862;2023-02-28T14:52:03;4;;;4;;
49456;SDS011;35352;51.480;-0.862;2023-02-28T14:54:39;5;;;4;;
49456;SDS011;35352;51.480;-0.862;2023-02-28T14:57:19;6;;;6;;
49456;SDS011;35352;51.480;-0.862;2023-02-28T14:59:57;7;;;7;;
49456;SDS011;35352;51.480;-0.862;2023-02-28T15:02:28;6;;;5;;
49456;SDS011;35352;51.480;-0.862;2023-02-28T15:05:00;6;;;5;;
49456;SDS011;35352;51.480;-0.862;2023-02-28T15:08:00;8;;;6;;
49456;SDS011;35352;51.480;-0.862;2023-02-28T15:11:13;3;;;3;;
49456;SDS011;35352;51.480;-0.862;2023-02-28T15:13:44;4;;;4;;
49456;SDS011;35352;51.480;-0.862;2023-02-28T15:16:16;6;;;4;;
49456;SDS011;35352;51.480;-0.862;2023-02-28T15:18:48;5;;;5;;
49456;SDS011;35352;51.480;-0.862;2023-02-28T15:21:21;7;;;5;;
49456;SDS011;35352;51.480;-0.862;2023-02-28T15:23:51;4;;;4;;
49456;SDS011;35352;51.480;-0.862;2023-02-28T15:26:22;5;;;5;;
49456;SDS011;35352;51.480;-0.862;2023-02-28T15:28:56;5;;;5;;
49456;SDS011;35352;51.480;-0.862;2023-02-28T15:31:29;5;;;4;;
49456;SDS011;35352;51.480;-0.862;2023-02-28T15:34:02;8;;;4;;
49456;SDS011;35352;51.480;-0.862;2023-02-28T15:36:32;7;;;7;;
49456;SDS011;35352;51.480;-0.862;2023-02-28T15:39:01;5;;;5;;
49456;SDS011;35352;51.480;-0.862;2023-02-28T15:41:29;2;;;2;;
49456;SDS011;35352;51.480;-0.862;2023-02-28T15:44:35;2;;;2;;
49456;SDS011;35352;51.480;-0.862;2023-02-28T15:47:04;4;;;3;;
49456;SDS011;35352;51.480;-0.862;2023-02-28T15:49:36;4;;;4;;
49456;SDS011;35352;51.480;-0.862;2023-02-28T15:52:13;6;;;5;;
49456;SDS011;35352;51.480;-0.862;2023-02-28T15:54:45;5;;;5;;
49456;SDS011;35352;51.480;-0.862;2023-02-28T15:57:15;7;;;7;;
49456;SDS011;35352;51.480;-0.862;2023-02-28T15:59:50;5;;;5;;
49456;SDS011;35352;51.480;-0.862;2023-02-28T16:02:21;7;;;5;;
49456;SDS011;35352;51.480;-0.862;2023-02-28T16:04:58;7;;;5;;
49456;SDS011;35352;51.480;-0.862;2023-02-28T16:07:28;3;;;3;;
49456;SDS011;35352;51.480;-0.862;2023-02-28T16:09:56;3;;;3;;
49456;SDS011;35352;51.480;-0.862;2023-02-28T16:12:25;4;;;4;;
49456;SDS011;35352;51.480;-0.862;2023-02-28T16:14:54;3;;;3;;
49456;SDS011;35352;51.480;-0.862;2023-02-28T16:17:25;3;;;3;;
49456;SDS011;35352;51.480;-0.862;2023-02-28T16:19:54;4;;;4;;
49456;SDS011;35352;51.480;-0.862;2023-02-28T16:22:22;7;;;5;;
49456;SDS011;35352;51.480;-0.862;2023-02-28T16:24:49;6;;;5;;
49456;SDS011;35352;51.480;-0.862;2023-02-28T16:27:18;4;;;4;;
49456;SDS011;35352;51.480;-0.862;2023-02-28T16:29:48;5;;;5;;